Time;durP1;ratioP1;P1;durP2;ratioP2;P2;SDS_P1;SDS_P2;PMS_P1;PMS_P2;Temp;Humidity;BMP_temperature;BMP_pressure;BME280_temperature;BME280_humidity;BME280_pressure;Samples;Min_cycle;Max_cycle;Signal;HPM_P1;HPM_P2
2022/06/19 00:00:48;;;;;;;11.45;8.13;;;;;;;;;;5087054;28;20047;-72
2022/06/19 00:03:24;;;;;;;13.17;8.70;;;;;;;;;;5087355;28;20044;-73
2022/06/19 00:05:55;;;;;;;9.43;6.90;;;;;;;;;;5086967;28;20070;-72
2022/06/19 00:08:26;;;;;;;13.23;8.00;;;;;;;;;;5086941;28;20534;-72
2022/06/19 00:10:57;;;;;;;10.63;7.47;;;;;;;;;;5086931;28;20051;-72
2022/06/19 00:13:27;;;;;;;9.23;7.18;;;;;;;;;;5086920;28;20044;-72
2022/06/19 00:15:58;;;;;;;12.93;6.90;;;;;;;;;;5087338;28;20051;-74
2022/06/19 00:18:28;;;;;;;12.60;8.43;;;;;;;;;;5087221;28;20048;-73
2022/06/19 00:20:58;;;;;;;10.43;7.75;;;;;;;;;;5087265;28;20660;-72
2022/06/19 00:23:28;;;;;;;9.68;6.75;;;;;;;;;;5086782;28;20048;-72
2022/06/19 00:25:58;;;;;;;7.57;6.47;;;;;;;;;;5086607;28;20044;-72
2022/06/19 00:28:29;;;;;;;17.42;7.95;;;;;;;;;;5086394;28;20047;-72
2022/06/19 00:30:59;;;;;;;20.65;12.27;;;;;;;;;;5086801;28;20051;-72
2022/06/19 00:33:29;;;;;;;20.73;11.07;;;;;;;;;;5086858;28;20052;-72
2022/06/19 00:35:59;;;;;;;17.02;11.00;;;;;;;;;;5086828;28;20052;-71
2022/06/19 00:38:29;;;;;;;14.98;8.90;;;;;;;;;;5086349;28;20043;-71
2022/06/19 00:41:00;;;;;;;16.20;9.13;;;;;;;;;;5087012;28;20510;-71
2022/06/19 00:43:30;;;;;;;;;;;;;;;;;;5087771;28;20162;-71
2022/06/19 00:46:24;;;;;;;12.10;7.60;;;;;;;;;;5086766;28;19924;-71
2022/06/19 00:48:54;;;;;;;12.52;7.95;;;;;;;;;;5086463;28;20515;-71
2022/06/19 00:51:24;;;;;;;12.57;7.75;;;;;;;;;;5068924;28;20545;-71
2022/06/19 00:53:54;;;;;;;17.02;7.32;;;;;;;;;;5051651;28;20056;-71
2022/06/19 00:56:25;;;;;;;12.70;7.63;;;;;;;;;;5086218;28;20051;-72
2022/06/19 00:58:56;;;;;;;12.48;8.80;;;;;;;;;;5067888;28;20048;-72
2022/06/19 01:01:27;;;;;;;11.90;7.82;;;;;;;;;;5085359;28;20507;-72
2022/06/19 01:04:08;;;;;;;19.35;11.77;;;;;;;;;;5084614;28;20043;-72
2022/06/19 01:06:39;;;;;;;24.75;14.05;;;;;;;;;;5087588;28;20483;-72
2022/06/19 01:09:08;;;;;;;24.98;12.75;;;;;;;;;;5090094;28;20047;-72
2022/06/19 01:11:39;;;;;;;25.13;13.68;;;;;;;;;;5090240;28;20507;-71
2022/06/19 01:14:14;;;;;;;20.80;10.98;;;;;;;;;;5089480;28;20044;-71
2022/06/19 01:16:45;;;;;;;16.17;11.55;;;;;;;;;;5089883;28;20055;-71
2022/06/19 01:19:28;;;;;;;16.15;11.82;;;;;;;;;;5090747;28;20048;-71
2022/06/19 01:22:12;;;;;;;15.88;10.90;;;;;;;;;;5090368;28;20048;-71
2022/06/19 01:25:02;;;;;;;16.58;10.40;;;;;;;;;;5090588;28;20051;-71
2022/06/19 01:30:27;;;;;;;14.15;8.98;;;;;;;;;;5089490;28;20411;-71
2022/06/19 01:33:00;;;;;;;14.45;9.27;;;;;;;;;;5090512;28;20051;-71
2022/06/19 01:35:34;;;;;;;14.30;10.27;;;;;;;;;;5090889;28;20048;-71
2022/06/19 01:38:11;;;;;;;12.77;8.90;;;;;;;;;;5090515;28;20044;-72
2022/06/19 01:40:44;;;;;;;10.70;8.40;;;;;;;;;;5089634;28;20044;-71
2022/06/19 01:43:14;;;;;;;30.00;18.42;;;;;;;;;;5090036;28;20040;-71
2022/06/19 01:45:49;;;;;;;33.33;18.00;;;;;;;;;;5089532;28;20058;-71
2022/06/19 01:48:24;;;;;;;16.70;12.48;;;;;;;;;;5089822;28;20044;-73
2022/06/19 01:50:57;;;;;;;28.80;17.63;;;;;;;;;;5089985;28;20047;-71
2022/06/19 01:53:34;;;;;;;37.15;16.98;;;;;;;;;;5089432;28;20060;-71
2022/06/19 01:56:07;;;;;;;23.42;11.15;;;;;;;;;;5090161;28;20048;-71
2022/06/19 01:58:44;;;;;;;14.52;9.90;;;;;;;;;;5090626;28;20581;-71
2022/06/19 02:01:15;;;;;;;18.30;11.50;;;;;;;;;;5090176;28;20848;-71
2022/06/19 02:03:51;;;;;;;13.55;9.25;;;;;;;;;;5089419;28;20056;-71
2022/06/19 02:06:26;;;;;;;14.30;10.90;;;;;;;;;;5089593;28;20407;-71
2022/06/19 02:09:00;;;;;;;19.30;10.65;;;;;;;;;;5089604;28;20055;-71
2022/06/19 02:11:33;;;;;;;16.48;11.05;;;;;;;;;;5070633;28;20059;-71
2022/06/19 02:14:09;;;;;;;12.65;8.95;;;;;;;;;;5089352;28;20047;-71
2022/06/19 02:16:42;;;;;;;13.70;7.97;;;;;;;;;;5087969;28;20084;-72
2022/06/19 02:19:13;;;;;;;18.95;10.25;;;;;;;;;;5089138;28;20047;-71
2022/06/19 02:21:55;;;;;;;15.50;8.23;;;;;;;;;;5088407;28;20380;-71
2022/06/19 02:24:27;;;;;;;18.55;10.52;;;;;;;;;;5087536;28;20418;-70
2022/06/19 02:26:58;;;;;;;20.35;14.30;;;;;;;;;;5089726;28;20051;-71
2022/06/19 02:29:28;;;;;;;17.15;11.95;;;;;;;;;;5089434;28;20048;-74
2022/06/19 02:31:58;;;;;;;15.95;11.20;;;;;;;;;;5088905;28;20067;-71
2022/06/19 02:34:31;;;;;;;19.58;10.07;;;;;;;;;;5089473;28;20517;-71
2022/06/19 02:37:05;;;;;;;25.42;14.82;;;;;;;;;;5089196;28;20495;-71
2022/06/19 02:39:42;;;;;;;11.52;9.45;;;;;;;;;;5089128;28;20071;-71
2022/06/19 02:42:22;;;;;;;15.00;9.95;;;;;;;;;;5088224;28;20048;-71
2022/06/19 02:44:55;;;;;;;14.75;9.43;;;;;;;;;;5089397;28;20056;-71
2022/06/19 02:47:28;;;;;;;22.15;10.60;;;;;;;;;;5088972;28;20081;-70
2022/06/19 02:49:58;;;;;;;16.73;10.40;;;;;;;;;;5070814;28;20055;-71
2022/06/19 02:52:28;;;;;;;9.82;7.80;;;;;;;;;;5088688;28;20051;-71
2022/06/19 02:54:58;;;;;;;14.40;9.05;;;;;;;;;;5089642;28;20055;-71
2022/06/19 02:57:28;;;;;;;15.18;8.63;;;;;;;;;;5088570;28;20047;-71
2022/06/19 02:59:58;;;;;;;14.43;8.27;;;;;;;;;;5088408;28;20055;-71
2022/06/19 03:02:28;;;;;;;13.93;8.63;;;;;;;;;;5088810;28;20502;-71
2022/06/19 03:05:03;;;;;;;20.88;7.53;;;;;;;;;;5088235;28;20048;-71
2022/06/19 03:07:34;;;;;;;13.52;9.20;;;;;;;;;;5087322;28;20059;-71
2022/06/19 03:10:04;;;;;;;14.18;11.07;;;;;;;;;;5088498;28;20059;-71
2022/06/19 03:12:34;;;;;;;13.10;9.57;;;;;;;;;;5088033;28;20094;-71
2022/06/19 03:15:04;;;;;;;15.32;10.38;;;;;;;;;;5088674;28;20048;-72
2022/06/19 03:17:34;;;;;;;14.13;9.18;;;;;;;;;;5088315;28;20070;-71
2022/06/19 03:20:05;;;;;;;14.77;9.00;;;;;;;;;;5088089;28;20044;-71
2022/06/19 03:22:34;;;;;;;11.57;8.37;;;;;;;;;;5088531;28;20055;-71
2022/06/19 03:25:05;;;;;;;15.98;8.40;;;;;;;;;;5068830;28;20055;-71
2022/06/19 03:27:35;;;;;;;13.52;8.20;;;;;;;;;;5088031;28;20036;-71
2022/06/19 03:30:06;;;;;;;11.45;8.30;;;;;;;;;;5086984;28;20036;-70
2022/06/19 03:32:36;;;;;;;10.13;7.60;;;;;;;;;;5088427;28;20052;-70
2022/06/19 03:35:06;;;;;;;11.23;7.80;;;;;;;;;;5087572;28;20570;-71
2022/06/19 03:37:36;;;;;;;14.00;8.18;;;;;;;;;;5087738;28;20040;-70
2022/06/19 03:40:07;;;;;;;18.60;8.43;;;;;;;;;;5087281;28;20051;-71
2022/06/19 03:42:38;;;;;;;17.48;8.85;;;;;;;;;;5087831;28;20416;-70
2022/06/19 03:45:08;;;;;;;15.95;7.88;;;;;;;;;;5087945;28;20064;-71
2022/06/19 03:47:39;;;;;;;13.00;8.45;;;;;;;;;;5088333;28;20054;-70
2022/06/19 03:50:16;;;;;;;10.98;8.40;;;;;;;;;;5087404;28;20067;-71
2022/06/19 03:52:47;;;;;;;14.75;8.63;;;;;;;;;;5087807;28;20491;-71
2022/06/19 03:55:17;;;;;;;11.40;7.90;;;;;;;;;;5087712;28;20052;-70
2022/06/19 03:57:47;;;;;;;8.80;7.22;;;;;;;;;;5087650;28;20048;-71
2022/06/19 04:00:18;;;;;;;14.05;7.57;;;;;;;;;;5087435;28;20079;-70
2022/06/19 04:02:49;;;;;;;10.32;7.65;;;;;;;;;;5087326;28;20052;-71
2022/06/19 04:05:19;;;;;;;15.10;7.00;;;;;;;;;;5087492;28;20047;-70
2022/06/19 04:07:50;;;;;;;12.63;8.07;;;;;;;;;;5085912;28;20055;-70
2022/06/19 04:10:22;;;;;;;10.65;8.20;;;;;;;;;;5086709;28;20075;-71
2022/06/19 04:12:54;;;;;;;12.25;7.85;;;;;;;;;;5087092;28;20040;-71
2022/06/19 04:15:24;;;;;;;11.38;7.75;;;;;;;;;;5068610;28;20059;-71
2022/06/19 04:17:54;;;;;;;12.93;7.90;;;;;;;;;;5087182;28;20052;-70
2022/06/19 04:20:24;;;;;;;11.02;8.38;;;;;;;;;;5087318;28;20074;-71
2022/06/19 04:22:54;;;;;;;8.80;7.82;;;;;;;;;;5087745;28;20499;-71
2022/06/19 04:25:25;;;;;;;13.52;6.68;;;;;;;;;;5086973;28;20043;-71
2022/06/19 04:27:55;;;;;;;;;;;;;;;;;;5087676;28;20063;-71
2022/06/19 04:30:25;;;;;;;10.80;6.95;;;;;;;;;;5087148;28;19935;-71
2022/06/19 04:32:55;;;;;;;13.38;8.85;;;;;;;;;;5087331;28;20039;-71
2022/06/19 04:35:25;;;;;;;17.35;9.15;;;;;;;;;;5086719;28;20063;-70
2022/06/19 04:37:54;;;;;;;13.68;8.73;;;;;;;;;;5086833;28;20047;-71
2022/06/19 04:40:28;;;;;;;13.90;8.52;;;;;;;;;;5069070;28;20044;-71
2022/06/19 04:42:58;;;;;;;12.10;7.72;;;;;;;;;;5087280;28;20051;-71
2022/06/19 04:45:29;;;;;;;12.05;7.20;;;;;;;;;;5087031;28;20059;-70
2022/06/19 04:47:59;;;;;;;9.02;7.30;;;;;;;;;;5086805;28;20052;-71
2022/06/19 04:50:28;;;;;;;10.13;7.63;;;;;;;;;;5086646;28;20048;-71
2022/06/19 04:52:58;;;;;;;12.57;7.28;;;;;;;;;;5086880;28;20051;-71
2022/06/19 04:55:28;;;;;;;15.25;7.20;;;;;;;;;;5068914;28;20059;-70
2022/06/19 04:58:04;;;;;;;9.13;6.85;;;;;;;;;;5068291;28;20052;-71
2022/06/19 05:00:34;;;;;;;7.72;6.15;;;;;;;;;;5086929;28;20048;-71
2022/06/19 05:03:04;;;;;;;10.60;7.05;;;;;;;;;;5086453;28;20052;-70
2022/06/19 05:05:34;;;;;;;8.65;6.35;;;;;;;;;;5067863;28;20055;-70
2022/06/19 05:08:04;;;;;;;8.98;6.50;;;;;;;;;;5087364;28;20093;-71
2022/06/19 05:10:34;;;;;;;14.23;6.30;;;;;;;;;;5086936;28;20075;-71
2022/06/19 05:13:06;;;;;;;7.53;6.30;;;;;;;;;;5087354;28;20828;-71
2022/06/19 05:15:36;;;;;;;9.35;6.32;;;;;;;;;;5086409;28;20055;-71
2022/06/19 05:18:06;;;;;;;6.70;5.60;;;;;;;;;;5086588;28;20052;-71
2022/06/19 05:20:37;;;;;;;8.30;6.32;;;;;;;;;;5086192;28;20052;-71
2022/06/19 05:23:08;;;;;;;12.18;6.60;;;;;;;;;;5086493;28;20043;-71
2022/06/19 05:25:38;;;;;;;10.70;7.75;;;;;;;;;;5086355;28;20066;-70
2022/06/19 05:28:08;;;;;;;11.23;7.93;;;;;;;;;;5085981;28;20802;-71
2022/06/19 05:30:38;;;;;;;7.95;7.15;;;;;;;;;;5086463;28;20503;-71
2022/06/19 05:33:07;;;;;;;9.80;7.60;;;;;;;;;;5087158;28;20489;-70
2022/06/19 05:35:38;;;;;;;11.05;7.28;;;;;;;;;;5086314;28;20051;-70
2022/06/19 05:38:12;;;;;;;8.75;6.70;;;;;;;;;;5086233;28;20063;-70
2022/06/19 05:40:43;;;;;;;14.73;6.25;;;;;;;;;;5086100;28;20373;-70
2022/06/19 05:43:13;;;;;;;11.05;6.40;;;;;;;;;;5086030;28;20048;-71
2022/06/19 05:45:53;;;;;;;9.63;6.60;;;;;;;;;;5086309;28;20052;-71
2022/06/19 05:48:24;;;;;;;8.65;5.97;;;;;;;;;;5086909;28;20404;-70
2022/06/19 05:51:04;;;;;;;13.85;6.03;;;;;;;;;;5085977;28;20487;-71
2022/06/19 05:53:38;;;;;;;8.77;5.60;;;;;;;;;;5088777;28;20036;-70
2022/06/19 05:56:08;;;;;;;6.80;5.55;;;;;;;;;;5090207;28;20052;-70
2022/06/19 05:58:39;;;;;;;7.05;5.03;;;;;;;;;;5090440;28;20048;-70
2022/06/19 06:01:11;;;;;;;9.48;5.05;;;;;;;;;;5090127;28;20419;-71
2022/06/19 06:03:44;;;;;;;10.40;5.40;;;;;;;;;;5089906;28;20059;-70
2022/06/19 06:06:23;;;;;;;7.88;5.32;;;;;;;;;;5071804;28;20054;-70
2022/06/19 06:08:54;;;;;;;6.60;5.80;;;;;;;;;;5090068;28;20052;-70
2022/06/19 06:11:24;;;;;;;7.40;5.40;;;;;;;;;;5089333;28;20123;-70
2022/06/19 06:13:54;;;;;;;8.52;5.47;;;;;;;;;;5070514;28;20059;-70
2022/06/19 06:16:25;;;;;;;7.75;5.22;;;;;;;;;;5089333;28;20051;-70
2022/06/19 06:18:56;;;;;;;8.20;5.13;;;;;;;;;;5089451;28;20503;-70
2022/06/19 06:21:26;;;;;;;6.47;4.97;;;;;;;;;;5089679;28;20430;-70
2022/06/19 06:23:56;;;;;;;6.72;4.70;;;;;;;;;;5089637;28;20048;-70
2022/06/19 06:26:29;;;;;;;5.43;4.60;;;;;;;;;;5089383;28;20388;-70
2022/06/19 06:29:01;;;;;;;6.50;4.75;;;;;;;;;;5089131;28;20055;-70
2022/06/19 06:31:33;;;;;;;8.20;5.28;;;;;;;;;;5089127;28;20051;-70
2022/06/19 06:34:04;;;;;;;7.25;4.90;;;;;;;;;;5089605;28;20495;-70
2022/06/19 06:36:34;;;;;;;9.23;4.55;;;;;;;;;;5089080;28;20044;-70
2022/06/19 06:39:04;;;;;;;10.85;4.78;;;;;;;;;;5089324;28;20059;-70
2022/06/19 06:41:34;;;;;;;8.43;5.05;;;;;;;;;;5070727;28;20048;-71
2022/06/19 06:44:04;;;;;;;6.28;4.28;;;;;;;;;;5089105;28;20055;-70
2022/06/19 06:46:40;;;;;;;6.45;4.95;;;;;;;;;;5089102;28;20060;-71
2022/06/19 06:49:10;;;;;;;6.90;4.93;;;;;;;;;;5088530;28;20048;-70
2022/06/19 06:51:40;;;;;;;6.18;4.70;;;;;;;;;;5089551;28;20400;-70
2022/06/19 06:54:10;;;;;;;6.25;4.88;;;;;;;;;;5088776;28;20048;-70
2022/06/19 06:56:40;;;;;;;7.70;5.07;;;;;;;;;;5089077;28;20052;-73
2022/06/19 06:59:10;;;;;;;5.28;4.32;;;;;;;;;;5088668;28;20118;-70
2022/06/19 07:01:40;;;;;;;11.35;4.57;;;;;;;;;;5088672;28;20059;-70
2022/06/19 07:04:09;;;;;;;11.02;4.63;;;;;;;;;;5088467;28;20060;-70
2022/06/19 07:06:39;;;;;;;9.60;4.15;;;;;;;;;;5088545;28;20063;-70
2022/06/19 07:09:09;;;;;;;5.07;4.13;;;;;;;;;;5088396;28;20070;-70
2022/06/19 07:11:41;;;;;;;6.30;4.20;;;;;;;;;;5088036;28;20048;-70
2022/06/19 07:14:13;;;;;;;5.68;4.43;;;;;;;;;;5087968;28;20043;-71
2022/06/19 07:16:44;;;;;;;5.22;3.85;;;;;;;;;;5088222;28;20048;-70
2022/06/19 07:19:14;;;;;;;6.65;4.55;;;;;;;;;;5089105;28;20048;-70
2022/06/19 07:21:43;;;;;;;6.75;4.72;;;;;;;;;;5088079;28;20055;-70
2022/06/19 07:24:13;;;;;;;9.20;4.93;;;;;;;;;;5088379;28;20040;-70
2022/06/19 07:26:43;;;;;;;6.57;4.40;;;;;;;;;;5088175;28;20044;-70
2022/06/19 07:29:13;;;;;;;15.25;5.13;;;;;;;;;;5087973;28;20492;-70
2022/06/19 07:31:43;;;;;;;7.03;4.30;;;;;;;;;;5088235;28;20048;-70
2022/06/19 07:34:13;;;;;;;7.05;4.68;;;;;;;;;;5088365;28;20039;-70
2022/06/19 07:36:48;;;;;;;5.25;4.13;;;;;;;;;;5087723;28;20051;-70
2022/06/19 07:39:19;;;;;;;6.00;4.47;;;;;;;;;;5087806;28;20048;-70
2022/06/19 07:41:49;;;;;;;5.03;4.40;;;;;;;;;;5087928;28;20040;-70
2022/06/19 07:44:19;;;;;;;6.60;4.68;;;;;;;;;;5088658;28;20290;-70
2022/06/19 07:52:25;;;;;;;9.25;4.00;;;;;;;;;;5087293;28;20396;-70
2022/06/19 07:54:55;;;;;;;10.32;4.78;;;;;;;;;;5087667;28;20058;-70
2022/06/19 07:57:26;;;;;;;7.85;4.47;;;;;;;;;;5087626;28;20494;-71
2022/06/19 07:59:57;;;;;;;6.80;4.70;;;;;;;;;;5087333;28;20407;-70
2022/06/19 08:02:27;;;;;;;8.55;4.80;;;;;;;;;;5087196;28;20048;-70
2022/06/19 08:04:58;;;;;;;8.18;4.53;;;;;;;;;;5068664;28;20064;-70
2022/06/19 08:07:28;;;;;;;;;;;;;;;;;;5088039;28;20044;-70
2022/06/19 08:09:58;;;;;;;13.68;4.32;;;;;;;;;;5087437;28;19927;-70
2022/06/19 08:12:28;;;;;;;6.18;4.57;;;;;;;;;;5087471;28;20040;-70
2022/06/19 08:14:57;;;;;;;4.88;4.25;;;;;;;;;;5087142;28;20044;-70
2022/06/19 08:17:27;;;;;;;5.57;4.47;;;;;;;;;;5069552;28;20503;-70
2022/06/19 08:19:57;;;;;;;6.53;4.80;;;;;;;;;;5087038;28;20414;-70
2022/06/19 08:22:27;;;;;;;9.02;5.10;;;;;;;;;;5069709;28;20054;-70
2022/06/19 08:24:57;;;;;;;19.63;5.25;;;;;;;;;;5087112;28;20048;-70
2022/06/19 08:27:26;;;;;;;7.75;4.53;;;;;;;;;;5086937;28;20055;-70
2022/06/19 08:29:56;;;;;;;9.80;4.72;;;;;;;;;;5087351;28;20052;-70
2022/06/19 08:32:26;;;;;;;9.27;4.40;;;;;;;;;;5086981;28;20051;-70
2022/06/19 08:34:56;;;;;;;6.10;4.72;;;;;;;;;;5086678;28;20062;-70
2022/06/19 08:37:26;;;;;;;5.85;4.18;;;;;;;;;;5086558;28;20044;-70
2022/06/19 08:39:56;;;;;;;9.95;4.43;;;;;;;;;;5086952;28;20040;-70
2022/06/19 08:42:34;;;;;;;6.50;4.90;;;;;;;;;;5086751;28;20426;-69
2022/06/19 08:45:35;;;;;;;6.90;4.25;;;;;;;;;;5087063;28;20059;-70
2022/06/19 08:48:17;;;;;;;6.40;4.60;;;;;;;;;;5086477;28;20048;-70
2022/06/19 08:51:11;;;;;;;6.13;3.85;;;;;;;;;;5086839;28;20040;-70
2022/06/19 08:53:51;;;;;;;6.13;3.80;;;;;;;;;;5086544;28;20044;-70
2022/06/19 08:56:52;;;;;;;14.23;4.47;;;;;;;;;;5086882;28;20066;-70
2022/06/19 08:59:44;;;;;;;5.88;4.68;;;;;;;;;;5069390;28;20048;-70
2022/06/19 09:02:22;;;;;;;6.30;4.40;;;;;;;;;;5087067;28;20044;-70
2022/06/19 09:05:39;;;;;;;6.72;4.00;;;;;;;;;;5086541;28;20095;-70
2022/06/19 09:08:16;;;;;;;5.25;4.35;;;;;;;;;;5086823;28;20050;-70
2022/06/19 09:11:09;;;;;;;8.48;4.22;;;;;;;;;;5087178;28;20044;-70
2022/06/19 09:13:45;;;;;;;8.82;4.43;;;;;;;;;;5073196;28;20055;-70
2022/06/19 09:16:32;;;;;;;5.32;3.95;;;;;;;;;;5068700;28;20514;-70
2022/06/19 09:19:24;;;;;;;5.05;3.92;;;;;;;;;;5068237;28;20067;-70
2022/06/19 09:22:38;;;;;;;17.92;3.80;;;;;;;;;;5086587;28;20600;-70
2022/06/19 09:25:38;;;;;;;13.68;4.07;;;;;;;;;;4998713;28;20067;-70
2022/06/19 09:28:21;;;;;;;29.75;4.57;;;;;;;;;;5088590;28;20044;-70
2022/06/19 09:30:57;;;;;;;5.25;4.18;;;;;;;;;;5090544;28;20048;-70
2022/06/19 09:33:30;;;;;;;7.68;4.35;;;;;;;;;;5090039;28;20051;-70
2022/06/19 09:36:17;;;;;;;8.80;3.83;;;;;;;;;;5090033;28;20063;-70
2022/06/19 09:38:56;;;;;;;10.95;4.97;;;;;;;;;;5090107;28;20040;-70
2022/06/19 09:42:00;;;;;;;133.95;7.78;;;;;;;;;;5090191;28;20048;-70
2022/06/19 09:44:40;;;;;;;41.72;5.43;;;;;;;;;;5089296;28;20050;-69
2022/06/19 09:47:31;;;;;;;55.28;5.10;;;;;;;;;;5090104;28;20040;-69
2022/06/19 09:50:35;;;;;;;48.65;4.60;;;;;;;;;;5089743;28;20036;-69
2022/06/19 09:53:28;;;;;;;24.52;4.50;;;;;;;;;;5089840;28;20056;-69
2022/06/19 09:56:33;;;;;;;6.57;3.67;;;;;;;;;;5089938;28;20056;-72
2022/06/19 09:59:14;;;;;;;24.65;5.32;;;;;;;;;;5089687;28;20036;-72
2022/06/19 10:01:47;;;;;;;33.17;4.50;;;;;;;;;;5090198;28;20392;-72
2022/06/19 10:04:29;;;;;;;7.15;4.22;;;;;;;;;;5089595;28;20404;-69
2022/06/19 10:07:04;;;;;;;3.67;3.20;;;;;;;;;;5089705;28;20522;-69
2022/06/19 10:09:58;;;;;;;4.45;3.72;;;;;;;;;;5089319;28;20410;-69
2022/06/19 10:12:44;;;;;;;4.82;3.35;;;;;;;;;;5089329;28;20558;-69
2022/06/19 10:15:30;;;;;;;7.38;3.60;;;;;;;;;;5089662;28;20063;-69
2022/06/19 10:18:13;;;;;;;4.03;3.55;;;;;;;;;;5089624;28;20503;-69
2022/06/19 10:24:15;;;;;;;3.95;3.53;;;;;;;;;;5088156;28;20055;-70
2022/06/19 10:26:57;;;;;;;4.75;3.65;;;;;;;;;;5089238;28;20052;-70
2022/06/19 10:30:01;;;;;;;4.50;3.40;;;;;;;;;;5089621;28;20044;-70
2022/06/19 10:32:38;;;;;;;4.13;3.38;;;;;;;;;;5077667;28;20060;-70
2022/06/19 10:35:21;;;;;;;4.15;3.45;;;;;;;;;;5089256;28;20036;-70
2022/06/19 10:38:08;;;;;;;5.65;3.75;;;;;;;;;;5071366;28;20051;-69
2022/06/19 10:40:57;;;;;;;5.57;3.38;;;;;;;;;;5089219;28;20043;-70
2022/06/19 10:43:30;;;;;;;6.40;3.45;;;;;;;;;;5088728;28;20052;-69
2022/06/19 10:46:09;;;;;;;270.75;10.98;;;;;;;;;;5089293;28;20052;-70
2022/06/19 10:49:00;;;;;;;3.63;3.25;;;;;;;;;;5070975;28;20044;-69
2022/06/19 10:51:35;;;;;;;5.13;3.35;;;;;;;;;;5088695;28;20044;-70
2022/06/19 10:54:33;;;;;;;4.88;3.42;;;;;;;;;;5088651;28;20059;-70
2022/06/19 10:57:19;;;;;;;7.83;3.40;;;;;;;;;;5071512;28;20044;-70
2022/06/19 10:59:51;;;;;;;9.23;3.97;;;;;;;;;;5088183;28;20044;-70
2022/06/19 11:05:38;;;;;;;34.72;4.28;;;;;;;;;;5088677;28;20040;-71
2022/06/19 11:08:08;;;;;;;89.75;5.63;;;;;;;;;;5088182;28;20067;-70
2022/06/19 11:10:48;;;;;;;26.10;3.58;;;;;;;;;;5088729;28;20479;-70
2022/06/19 11:13:19;;;;;;;13.30;3.58;;;;;;;;;;5088582;28;20051;-70
2022/06/19 11:16:00;;;;;;;;;;;;;;;;;;5088858;28;20427;-70
2022/06/19 11:18:49;;;;;;;29.90;3.87;;;;;;;;;;5088207;28;19924;-71
2022/06/19 11:21:23;;;;;;;114.07;6.40;;;;;;;;;;5088341;28;20380;-70
2022/06/19 11:24:00;;;;;;;103.53;5.60;;;;;;;;;;5088084;28;20056;-70
2022/06/19 11:26:41;;;;;;;127.15;6.75;;;;;;;;;;5088173;28;20047;-71
2022/06/19 11:29:14;;;;;;;59.60;5.53;;;;;;;;;;5087920;28;20415;-71
2022/06/19 11:32:09;;;;;;;10.55;3.42;;;;;;;;;;5088048;28;20052;-70
2022/06/19 11:34:53;;;;;;;11.95;3.42;;;;;;;;;;5088006;28;20106;-70
2022/06/19 11:37:33;;;;;;;12.25;2.72;;;;;;;;;;5088320;28;20059;-71
2022/06/19 11:40:06;;;;;;;24.75;3.20;;;;;;;;;;5088490;28;20044;-71
2022/06/19 11:42:37;;;;;;;42.38;4.97;;;;;;;;;;5087841;28;20044;-71
2022/06/19 11:45:14;;;;;;;11.50;3.55;;;;;;;;;;5087805;28;20059;-71
2022/06/19 11:47:54;;;;;;;11.15;4.03;;;;;;;;;;5087734;28;20406;-72
2022/06/19 11:50:37;;;;;;;4.97;3.38;;;;;;;;;;5087288;28;20040;-71
2022/06/19 11:53:11;;;;;;;6.72;2.30;;;;;;;;;;5087463;28;20434;-71
2022/06/19 11:55:52;;;;;;;27.08;2.35;;;;;;;;;;5087467;28;20517;-71
2022/06/19 11:58:43;;;;;;;53.75;3.08;;;;;;;;;;5087920;28;20048;-71
2022/06/19 12:01:20;;;;;;;20.23;1.80;;;;;;;;;;5087596;28;20047;-71
2022/06/19 12:03:58;;;;;;;19.35;3.63;;;;;;;;;;5086374;28;20048;-71
2022/06/19 12:06:54;;;;;;;2.97;1.95;;;;;;;;;;5087384;28;20036;-72
2022/06/19 12:09:29;;;;;;;3.28;2.10;;;;;;;;;;5087194;28;20048;-72
2022/06/19 12:12:07;;;;;;;5.75;3.92;;;;;;;;;;5086854;28;20116;-71
2022/06/19 12:14:51;;;;;;;3.05;2.22;;;;;;;;;;5086883;28;20075;-71
2022/06/19 12:17:33;;;;;;;2.30;1.80;;;;;;;;;;5087564;28;20043;-72
2022/06/19 12:20:06;;;;;;;8.25;2.15;;;;;;;;;;5086872;28;20625;-71
2022/06/19 12:22:57;;;;;;;3.17;1.85;;;;;;;;;;5087156;28;20055;-72
2022/06/19 12:25:34;;;;;;;5.70;2.00;;;;;;;;;;5086956;28;20047;-72
2022/06/19 12:28:06;;;;;;;1.80;1.70;;;;;;;;;;5087557;28;20040;-72
2022/06/19 12:30:43;;;;;;;2.45;1.70;;;;;;;;;;5086915;28;20490;-73
2022/06/19 12:33:38;;;;;;;1.95;1.65;;;;;;;;;;5085156;28;20048;-72
2022/06/19 12:36:17;;;;;;;8.55;2.00;;;;;;;;;;5086095;28;20062;-72
2022/06/19 12:38:50;;;;;;;4.47;1.85;;;;;;;;;;5087141;28;20040;-72
2022/06/19 12:41:39;;;;;;;3.13;1.88;;;;;;;;;;5086160;28;20052;-71
2022/06/19 12:44:30;;;;;;;3.47;1.70;;;;;;;;;;5087113;28;20410;-72
2022/06/19 12:47:29;;;;;;;2.80;1.83;;;;;;;;;;5087108;28;20695;-72
2022/06/19 12:50:01;;;;;;;9.63;2.00;;;;;;;;;;5086169;28;20522;-72
2022/06/19 12:52:52;;;;;;;2.22;1.83;;;;;;;;;;5086759;28;20048;-72
2022/06/19 12:55:35;;;;;;;9.73;3.10;;;;;;;;;;5087035;28;20530;-72
2022/06/19 12:58:39;;;;;;;3.10;1.80;;;;;;;;;;5087366;28;20515;-72
2022/06/19 13:01:31;;;;;;;4.13;2.10;;;;;;;;;;5069092;28;20044;-74
2022/06/19 13:04:29;;;;;;;6.28;2.28;;;;;;;;;;5091056;28;20442;-73
2022/06/19 13:07:18;;;;;;;4.47;2.05;;;;;;;;;;5089041;28;20040;-73
2022/06/19 13:10:06;;;;;;;3.38;2.00;;;;;;;;;;5091043;28;20452;-73
2022/06/19 13:12:45;;;;;;;4.57;2.08;;;;;;;;;;5091289;28;20521;-73
2022/06/19 13:15:44;;;;;;;2.60;1.98;;;;;;;;;;5090693;28;21154;-72
2022/06/19 13:18:30;;;;;;;4.28;2.22;;;;;;;;;;5090700;28;20067;-72
2022/06/19 13:21:08;;;;;;;2.60;1.95;;;;;;;;;;5090501;28;20055;-72
2022/06/19 13:23:48;;;;;;;4.28;2.00;;;;;;;;;;5091343;28;20044;-73
2022/06/19 13:29:28;;;;;;;4.30;2.30;;;;;;;;;;5050998;28;20059;-72
2022/06/19 13:32:30;;;;;;;9.13;2.40;;;;;;;;;;5089045;28;20047;-72
2022/06/19 13:35:23;;;;;;;14.82;2.60;;;;;;;;;;5088652;28;20052;-72
2022/06/19 13:38:17;;;;;;;4.90;1.98;;;;;;;;;;5088131;28;20062;-73
2022/06/19 13:41:24;;;;;;;2.97;2.00;;;;;;;;;;5088604;28;20036;-72
2022/06/19 13:44:05;;;;;;;4.60;2.47;;;;;;;;;;5090649;28;20052;-72
2022/06/19 13:46:56;;;;;;;9.88;2.50;;;;;;;;;;5090359;28;20083;-71
2022/06/19 13:49:43;;;;;;;4.88;2.25;;;;;;;;;;5090476;28;20048;-74
2022/06/19 13:52:41;;;;;;;4.32;2.03;;;;;;;;;;5089784;28;20059;-73
2022/06/19 13:55:29;;;;;;;2.63;1.73;;;;;;;;;;5048821;28;20060;-72
2022/06/19 13:58:10;;;;;;;3.42;1.83;;;;;;;;;;5089583;28;20040;-72
2022/06/19 14:00:55;;;;;;;5.07;1.80;;;;;;;;;;5089723;28;20855;-74
2022/06/19 14:07:04;;;;;;;4.53;2.42;;;;;;;;;;5070821;28;20059;-73
2022/06/19 14:09:37;;;;;;;2.30;1.80;;;;;;;;;;5089910;28;20507;-74
2022/06/19 14:12:11;;;;;;;3.72;2.22;;;;;;;;;;5089492;28;20620;-73
2022/06/19 14:14:45;;;;;;;10.75;2.95;;;;;;;;;;5088976;28;20434;-74
2022/06/19 14:17:36;;;;;;;2.88;1.85;;;;;;;;;;5089558;28;20047;-74
2022/06/19 14:20:26;;;;;;;7.35;3.03;;;;;;;;;;5089480;28;20055;-73
2022/06/19 14:23:34;;;;;;;3.55;2.00;;;;;;;;;;5089285;28;20075;-73
2022/06/19 14:26:17;;;;;;;2.72;1.70;;;;;;;;;;5069897;28;20064;-71
2022/06/19 14:29:24;;;;;;;9.48;2.17;;;;;;;;;;5071374;28;20047;-73
2022/06/19 14:31:57;;;;;;;15.65;2.47;;;;;;;;;;5089767;28;20055;-75
2022/06/19 14:34:59;;;;;;;6.20;1.77;;;;;;;;;;5070524;28;20052;-75
2022/06/19 14:37:29;;;;;;;2.65;1.90;;;;;;;;;;5071575;28;20074;-73
2022/06/19 14:40:19;;;;;;;3.17;2.00;;;;;;;;;;5088595;28;20048;-74
2022/06/19 14:42:54;;;;;;;2.22;1.90;;;;;;;;;;5089779;28;20048;-73
2022/06/19 14:45:39;;;;;;;5.20;1.77;;;;;;;;;;5089001;28;20051;-75
2022/06/19 14:48:33;;;;;;;3.58;1.73;;;;;;;;;;5089888;28;20044;-74
2022/06/19 14:51:13;;;;;;;5.95;1.67;;;;;;;;;;5089553;28;20047;-75
2022/06/19 14:54:12;;;;;;;2.43;1.73;;;;;;;;;;5088801;28;20067;-74
2022/06/19 14:57:22;;;;;;;4.05;1.80;;;;;;;;;;5088770;28;20047;-73
2022/06/19 15:00:04;;;;;;;4.82;2.40;;;;;;;;;;5089051;28;20526;-70
2022/06/19 15:02:54;;;;;;;7.47;1.98;;;;;;;;;;5088385;28;20040;-74
2022/06/19 15:05:36;;;;;;;11.75;1.80;;;;;;;;;;5088771;28;20098;-73
2022/06/19 15:08:26;;;;;;;1.65;1.55;;;;;;;;;;5088265;28;20051;-73
2022/06/19 15:11:09;;;;;;;4.07;1.98;;;;;;;;;;5089247;28;20047;-74
2022/06/19 15:13:47;;;;;;;3.88;1.70;;;;;;;;;;5087647;28;20059;-73
2022/06/19 15:16:22;;;;;;;3.15;1.70;;;;;;;;;;5088384;28;20519;-72
2022/06/19 15:19:00;;;;;;;8.90;1.90;;;;;;;;;;5088154;28;20059;-73
2022/06/19 15:21:48;;;;;;;2.47;1.70;;;;;;;;;;5088053;28;20044;-73
2022/06/19 15:24:29;;;;;;;6.22;1.90;;;;;;;;;;5087737;28;20047;-74
2022/06/19 15:27:26;;;;;;;6.88;2.05;;;;;;;;;;5087786;28;20486;-73
2022/06/19 15:30:01;;;;;;;4.72;2.00;;;;;;;;;;5088053;28;20055;-72
2022/06/19 15:32:49;;;;;;;3.65;2.30;;;;;;;;;;5088272;28;20048;-74
2022/06/19 15:35:34;;;;;;;4.45;2.50;;;;;;;;;;5088524;28;20052;-73
2022/06/19 15:38:09;;;;;;;5.45;2.60;;;;;;;;;;5088260;28;20062;-73
2022/06/19 15:40:43;;;;;;;3.47;2.30;;;;;;;;;;5087699;28;20044;-74
2022/06/19 15:43:16;;;;;;;4.85;2.22;;;;;;;;;;5088235;28;20044;-73
2022/06/19 15:46:00;;;;;;;2.10;1.90;;;;;;;;;;5087767;28;20059;-74
2022/06/19 15:48:30;;;;;;;3.50;2.47;;;;;;;;;;5069806;28;20047;-73
2022/06/19 15:51:04;;;;;;;6.05;2.30;;;;;;;;;;5087862;28;20036;-73
2022/06/19 15:53:37;;;;;;;5.28;2.35;;;;;;;;;;5070995;28;20084;-73
2022/06/19 15:56:25;;;;;;;3.35;2.15;;;;;;;;;;5087719;28;20036;-73